Time;durP1;ratioP1;P1;durP2;ratioP2;P2;SDS_P1;SDS_P2;PMS_P1;PMS_P2;Temp;Humidity;BMP_temperature;BMP_pressure;BME280_temperature;BME280_humidity;BME280_pressure;Samples;Min_cycle;Max_cycle;Signal;HPM_P1;HPM_P2
2022/10/26 00:02:17;;;;;;;5.10;1.90;;;11.50;99.90;;;;;;6186225;23;20153;-42
2022/10/26 00:04:43;;;;;;;3.57;1.87;;;11.50;99.90;;;;;;6186352;23;20153;-40
2022/10/26 00:07:09;;;;;;;13.73;2.27;;;11.50;99.90;;;;;;6186065;23;20184;-40
2022/10/26 00:09:34;;;;;;;5.30;2.23;;;11.50;99.90;;;;;;6186632;23;20174;-43
2022/10/26 00:12:00;;;;;;;4.07;2.10;;;11.50;99.90;;;;;;6186216;23;20149;-41
2022/10/26 00:14:26;;;;;;;5.07;1.90;;;11.50;99.90;;;;;;6159632;23;20160;-40
2022/10/26 00:16:52;;;;;;;5.43;2.00;;;11.50;99.90;;;;;;6186000;23;20633;-43
2022/10/26 00:19:17;;;;;;;3.83;1.80;;;11.50;99.90;;;;;;6185955;23;20157;-44
2022/10/26 00:21:43;;;;;;;2.87;1.67;;;11.50;99.90;;;;;;6185907;23;20219;-42
2022/10/26 00:24:10;;;;;;;9.30;1.73;;;11.50;99.90;;;;;;6185926;23;20153;-43
2022/10/26 00:26:36;;;;;;;10.60;1.60;;;11.50;99.90;;;;;;6160478;23;20240;-41
2022/10/26 00:29:02;;;;;;;4.83;2.07;;;11.50;99.90;;;;;;6186215;23;20215;-43
2022/10/26 00:31:28;;;;;;;11.90;2.10;;;11.50;99.90;;;;;;6186221;23;20153;-44
2022/10/26 00:33:55;;;;;;;3.90;2.00;;;11.50;99.90;;;;;;6185986;23;20248;-40
2022/10/26 00:36:22;;;;;;;6.43;1.93;;;11.50;99.90;;;;;;6185984;23;20153;-39
2022/10/26 00:38:53;;;;;;;4.67;1.90;;;11.50;99.90;;;;;;6135181;23;20504;-43
2022/10/26 00:41:28;;;;;;;4.80;1.87;;;11.50;99.90;;;;;;6159311;23;20195;-40
2022/10/26 00:43:54;;;;;;;3.23;1.70;;;11.60;99.90;;;;;;6186278;23;20153;-41
2022/10/26 00:46:36;;;;;;;5.70;1.93;;;11.50;99.90;;;;;;6185857;23;20203;-40
2022/10/26 00:49:09;;;;;;;3.40;2.00;;;11.50;99.90;;;;;;6185971;23;20203;-39
2022/10/26 00:51:41;;;;;;;4.83;1.70;;;11.50;99.90;;;;;;6185942;23;20169;-40
2022/10/26 00:54:12;;;;;;;5.87;1.77;;;11.50;99.90;;;;;;6186377;23;20148;-42
2022/10/26 00:56:39;;;;;;;4.97;1.93;;;11.60;99.90;;;;;;6184318;23;20183;-43
2022/10/26 00:59:09;;;;;;;5.73;1.90;;;11.60;99.90;;;;;;6184064;23;20180;-43
2022/10/26 01:01:36;;;;;;;5.53;2.20;;;11.60;99.90;;;;;;6186002;23;20186;-41
2022/10/26 01:04:02;;;;;;;3.47;1.33;;;11.60;99.90;;;;;;6159299;23;20164;-41
2022/10/26 01:06:30;;;;;;;5.70;1.43;;;11.60;99.90;;;;;;6183938;23;20160;-39
2022/10/26 01:08:56;;;;;;;7.43;1.77;;;11.60;99.90;;;;;;6186422;23;20252;-44
2022/10/26 01:11:21;;;;;;;4.67;1.90;;;11.70;99.90;;;;;;6161369;23;20225;-43
2022/10/26 01:13:49;;;;;;;6.97;2.17;;;11.70;99.90;;;;;;6188020;23;20160;-41
2022/10/26 01:16:56;;;;;;;8.27;2.17;;;11.70;99.90;;;;;;6187955;23;20184;-41
2022/10/26 01:19:30;;;;;;;3.50;1.70;;;11.70;99.90;;;;;;6129236;23;20161;-42
2022/10/26 01:22:06;;;;;;;8.57;2.10;;;11.70;99.90;;;;;;6186286;23;20493;-43
2022/10/26 01:24:51;;;;;;;3.23;1.57;;;11.70;99.90;;;;;;6188278;23;20148;-41
2022/10/26 01:27:28;;;;;;;9.27;2.00;;;11.70;99.90;;;;;;6187970;23;20183;-40
2022/10/26 01:30:11;;;;;;;5.03;2.00;;;11.70;99.90;;;;;;6188187;23;20176;-43
2022/10/26 01:33:08;;;;;;;8.73;2.00;;;11.80;99.90;;;;;;6163868;23;20145;-41
2022/10/26 01:35:39;;;;;;;5.70;1.90;;;11.70;99.90;;;;;;6187722;23;20468;-43
2022/10/26 01:38:14;;;;;;;8.63;2.20;;;11.80;99.90;;;;;;6187376;23;20177;-41
2022/10/26 01:40:45;;;;;;;5.83;1.87;;;11.80;99.90;;;;;;6187361;23;20173;-43
2022/10/26 01:43:14;;;;;;;6.90;1.87;;;11.80;99.90;;;;;;6187654;23;20157;-43
2022/10/26 01:45:44;;;;;;;5.70;2.23;;;11.80;99.90;;;;;;6187300;23;20207;-42
2022/10/26 01:48:14;;;;;;;7.37;1.80;;;11.80;99.90;;;;;;6187473;23;20173;-41
2022/10/26 01:50:42;;;;;;;4.67;1.90;;;11.90;99.90;;;;;;6187447;23;20160;-42
2022/10/26 01:53:12;;;;;;;9.13;1.93;;;11.90;99.90;;;;;;6187657;23;20153;-41
2022/10/26 01:55:38;;;;;;;7.40;1.57;;;11.90;99.90;;;;;;6187305;23;20160;-42
2022/10/26 01:58:30;;;;;;;5.03;1.73;;;11.90;99.90;;;;;;6187657;23;20184;-43
2022/10/26 02:01:17;;;;;;;9.03;1.83;;;11.90;99.90;;;;;;6187575;23;20223;-43
2022/10/26 02:04:05;;;;;;;3.13;1.53;;;12.00;99.90;;;;;;6187602;23;20148;-40
2022/10/26 02:06:51;;;;;;;4.33;1.63;;;12.00;99.90;;;;;;6187401;23;20157;-41
2022/10/26 02:09:40;;;;;;;4.57;1.70;;;12.00;99.90;;;;;;6187407;23;20192;-42
2022/10/26 02:12:20;;;;;;;9.93;2.03;;;12.10;99.90;;;;;;6187219;23;20137;-43
2022/10/26 02:15:00;;;;;;;5.40;1.63;;;12.00;99.90;;;;;;6187759;23;20652;-40
2022/10/26 02:17:33;;;;;;;5.27;1.77;;;12.10;99.90;;;;;;6187343;23;20235;-41
2022/10/26 02:20:06;;;;;;;4.57;1.77;;;12.10;99.90;;;;;;6187046;23;20185;-43
2022/10/26 02:22:54;;;;;;;5.70;1.43;;;12.10;99.90;;;;;;6187166;23;20276;-42
2022/10/26 02:25:26;;;;;;;7.10;2.23;;;12.10;99.90;;;;;;6188033;23;20587;-41
2022/10/26 02:27:58;;;;;;;5.13;1.80;;;12.10;99.90;;;;;;6188626;23;20677;-43
2022/10/26 02:30:24;;;;;;;8.10;2.00;;;12.20;99.90;;;;;;6189848;23;20148;-41
2022/10/26 02:32:53;;;;;;;3.73;1.50;;;12.20;99.90;;;;;;6190978;23;20153;-42
2022/10/26 02:35:24;;;;;;;4.20;1.70;;;12.20;99.90;;;;;;6188393;23;20497;-43
2022/10/26 02:37:51;;;;;;;5.53;2.00;;;12.30;99.90;;;;;;6160851;23;20216;-42
2022/10/26 02:40:21;;;;;;;5.10;2.10;;;12.20;99.90;;;;;;6187257;23;20493;-43
2022/10/26 02:47:54;;;;;;;2.40;1.37;;;12.30;99.90;;;;;;6186888;23;20196;-43
2022/10/26 02:50:27;;;;;;;2.37;1.27;;;12.30;99.90;;;;;;6186999;23;20156;-41
2022/10/26 02:53:01;;;;;;;6.13;1.60;;;12.40;99.90;;;;;;6186618;23;20145;-42
2022/10/26 02:55:33;;;;;;;4.13;1.60;;;12.30;99.90;;;;;;6186459;23;20152;-43
2022/10/26 02:58:03;;;;;;;5.10;1.87;;;12.30;99.90;;;;;;6186766;23;20204;-45
2022/10/26 03:00:30;;;;;;;3.13;1.57;;;12.40;99.90;;;;;;6160413;23;20696;-42
2022/10/26 03:02:57;;;;;;;5.07;1.50;;;12.40;99.90;;;;;;6186457;23;20228;-42
2022/10/26 03:05:28;;;;;;;3.30;1.40;;;12.40;99.90;;;;;;6186802;23;20149;-44
2022/10/26 03:07:56;;;;;;;6.43;1.50;;;12.50;99.90;;;;;;6186408;23;20587;-42
2022/10/26 03:10:21;;;;;;;5.20;1.40;;;12.50;99.90;;;;;;6186535;23;20153;-42
2022/10/26 03:12:47;;;;;;;5.27;1.60;;;12.50;99.90;;;;;;6186639;23;20167;-43
2022/10/26 03:15:14;;;;;;;11.63;1.90;;;12.50;99.90;;;;;;6186444;23;20641;-41
2022/10/26 03:17:40;;;;;;;3.23;1.53;;;12.60;99.90;;;;;;6187204;23;20235;-42
2022/10/26 03:20:06;;;;;;;4.27;1.60;;;12.60;99.90;;;;;;6186988;23;20548;-44
2022/10/26 03:22:31;;;;;;;7.57;2.20;;;12.60;99.90;;;;;;6186686;23;20180;-45
2022/10/26 03:24:57;;;;;;;8.83;1.90;;;12.60;99.90;;;;;;6186848;23;20602;-44
2022/10/26 03:27:22;;;;;;;6.40;1.63;;;12.70;99.90;;;;;;6186264;23;20217;-42
2022/10/26 03:29:48;;;;;;;4.73;1.60;;;12.70;99.90;;;;;;6186274;23;20153;-43
2022/10/26 03:32:14;;;;;;;5.57;1.63;;;12.70;99.90;;;;;;6186168;23;20522;-43
2022/10/26 03:34:39;;;;;;;9.13;2.10;;;12.70;99.90;;;;;;6186397;23;20153;-43
2022/10/26 03:37:05;;;;;;;3.00;1.60;;;12.70;99.90;;;;;;6186238;23;20176;-45
2022/10/26 03:39:30;;;;;;;8.67;2.00;;;12.60;99.90;;;;;;6186456;23;20153;-42
2022/10/26 03:41:56;;;;;;;6.83;1.60;;;12.70;99.90;;;;;;6186283;23;20248;-43
2022/10/26 03:44:22;;;;;;;6.07;1.40;;;12.70;99.90;;;;;;6186204;23;20149;-41
2022/10/26 03:46:47;;;;;;;1.90;1.30;;;12.70;99.90;;;;;;6186175;23;20172;-41
2022/10/26 03:49:13;;;;;;;3.93;1.50;;;12.70;99.90;;;;;;6186302;23;20153;-42
2022/10/26 03:51:39;;;;;;;5.97;1.63;;;12.70;99.90;;;;;;6184656;23;20249;-44
2022/10/26 03:54:04;;;;;;;2.47;1.20;;;12.70;99.90;;;;;;6186219;23;20163;-40
2022/10/26 03:56:30;;;;;;;5.00;1.43;;;12.70;99.90;;;;;;6185332;23;20215;-40
2022/10/26 03:58:56;;;;;;;3.73;1.43;;;12.70;99.90;;;;;;6184301;23;20659;-41
2022/10/26 04:01:21;;;;;;;11.93;1.70;;;12.70;99.90;;;;;;6185891;23;20180;-44
2022/10/26 04:03:47;;;;;;;9.23;1.77;;;12.70;99.90;;;;;;6185923;23;20160;-42
2022/10/26 04:06:13;;;;;;;3.90;1.43;;;12.70;99.90;;;;;;6185948;23;20224;-43
2022/10/26 04:08:38;;;;;;;4.17;1.53;;;12.60;99.90;;;;;;6186233;23;20252;-43
2022/10/26 04:11:04;;;;;;;5.53;1.50;;;12.70;99.90;;;;;;6185875;23;20224;-43
2022/10/26 04:13:30;;;;;;;1.83;1.17;;;12.60;99.90;;;;;;6186411;23;20553;-40
2022/10/26 04:15:56;;;;;;;4.77;1.63;;;12.60;99.90;;;;;;6135139;23;20168;-44
2022/10/26 04:18:21;;;;;;;5.27;1.67;;;12.60;99.90;;;;;;6186124;23;20638;-43
2022/10/26 04:20:47;;;;;;;8.93;1.70;;;12.60;99.90;;;;;;6185883;23;20180;-42
2022/10/26 04:23:14;;;;;;;5.03;1.47;;;12.60;99.90;;;;;;6186082;23;20599;-43
2022/10/26 04:25:41;;;;;;;3.40;1.80;;;12.60;99.90;;;;;;6186004;23;20180;-42
2022/10/26 04:28:08;;;;;;;4.90;1.50;;;12.60;99.90;;;;;;6186170;23;20524;-42
2022/10/26 04:30:35;;;;;;;5.70;2.00;;;12.60;99.90;;;;;;6186343;23;20533;-42
2022/10/26 04:33:01;;;;;;;3.37;1.60;;;12.70;99.90;;;;;;6186223;23;20223;-43
2022/10/26 04:35:27;;;;;;;4.40;1.20;;;12.60;99.90;;;;;;6186099;23;20165;-43
2022/10/26 04:38:00;;;;;;;4.07;1.17;;;12.60;99.90;;;;;;6186213;23;20183;-42
2022/10/26 04:40:27;;;;;;;5.70;1.40;;;12.70;99.90;;;;;;6185945;23;20558;-43
2022/10/26 04:42:53;;;;;;;4.70;1.50;;;12.70;99.90;;;;;;6186152;23;20617;-42
2022/10/26 04:45:19;;;;;;;3.50;1.40;;;12.70;99.90;;;;;;6186388;23;20177;-43
2022/10/26 04:47:45;;;;;;;4.00;1.83;;;12.80;99.90;;;;;;6185599;23;20646;-42
2022/10/26 04:50:12;;;;;;;5.97;1.70;;;12.80;99.90;;;;;;6185855;23;20171;-42
2022/10/26 04:52:38;;;;;;;2.83;1.30;;;12.80;99.90;;;;;;6186291;23;20486;-43
2022/10/26 04:55:05;;;;;;;3.37;1.40;;;12.80;99.90;;;;;;6185877;23;20236;-40
2022/10/26 04:57:32;;;;;;;1.23;1.10;;;12.90;99.90;;;;;;6185693;23;20231;-42
2022/10/26 04:59:59;;;;;;;2.67;1.30;;;12.80;99.90;;;;;;6186080;23;20157;-44
2022/10/26 05:02:24;;;;;;;5.53;1.50;;;12.90;99.90;;;;;;6186173;23;20153;-42
2022/10/26 05:04:50;;;;;;;5.67;2.00;;;12.90;99.90;;;;;;6185990;23;20160;-40
2022/10/26 05:07:15;;;;;;;3.63;1.10;;;13.00;99.90;;;;;;6183993;23;20511;-43
2022/10/26 05:10:33;;;;;;;;;;;;;;;;;;;;;
2022/10/26 05:13:00;;;;;;;2.10;1.47;;;13.00;99.90;;;;;;6163817;23;20252;-43
2022/10/26 05:15:27;;;;;;;4.27;1.20;;;13.10;99.90;;;;;;6185829;23;20157;-44
2022/10/26 05:18:01;;;;;;;2.70;1.17;;;13.10;99.90;;;;;;6185941;23;20204;-42
2022/10/26 05:20:30;;;;;;;3.33;1.27;;;13.10;99.90;;;;;;6185975;23;20203;-44
2022/10/26 05:23:03;;;;;;;1.73;1.10;;;13.10;99.90;;;;;;6185819;23;20228;-42
2022/10/26 05:25:30;;;;;;;3.83;1.57;;;13.20;99.90;;;;;;6186057;23;20137;-40
2022/10/26 05:28:00;;;;;;;3.07;1.50;;;13.20;99.90;;;;;;6185889;23;20631;-42
2022/10/26 05:30:27;;;;;;;7.23;1.30;;;13.20;99.90;;;;;;6185970;23;20157;-43
2022/10/26 05:32:57;;;;;;;3.27;1.30;;;13.30;99.90;;;;;;6185886;23;20156;-42
2022/10/26 05:35:24;;;;;;;5.27;1.30;;;13.20;99.90;;;;;;6186434;23;20148;-42
2022/10/26 05:37:50;;;;;;;5.03;1.40;;;13.30;99.90;;;;;;6185934;23;20236;-43
2022/10/26 05:40:16;;;;;;;2.63;1.20;;;13.30;99.90;;;;;;6185506;23;20615;-42
2022/10/26 05:42:42;;;;;;;1.60;1.00;;;13.40;99.90;;;;;;6185621;23;20157;-41
2022/10/26 05:45:08;;;;;;;1.80;0.97;;;13.40;99.90;;;;;;6185983;23;20485;-41
2022/10/26 05:47:41;;;;;;;5.63;1.07;;;13.40;99.90;;;;;;6185693;23;20196;-42
2022/10/26 05:50:08;;;;;;;2.70;0.80;;;13.40;99.90;;;;;;6185986;23;20141;-43
2022/10/26 06:08:42;;;;;;;3.60;1.17;;;13.50;99.90;;;;;;6157466;23;20189;-47
2022/10/26 06:11:08;;;;;;;2.43;1.00;;;13.50;99.90;;;;;;6157545;23;20153;-49
2022/10/26 06:13:34;;;;;;;3.67;1.03;;;13.50;99.90;;;;;;6157110;23;20662;-49
2022/10/26 06:16:27;;;;;;;4.73;1.10;;;13.50;99.90;;;;;;6157166;23;20153;-47
2022/10/26 06:19:23;;;;;;;1.40;0.90;;;13.60;99.90;;;;;;6157003;23;20208;-48
2022/10/26 06:22:07;;;;;;;3.13;1.10;;;13.70;99.90;;;;;;6156972;23;20248;-48
2022/10/26 06:24:41;;;;;;;1.57;1.00;;;13.80;99.90;;;;;;6157140;23;20458;-48
2022/10/26 06:27:12;;;;;;;1.87;0.87;;;13.90;99.90;;;;;;6157074;23;20252;-48
2022/10/26 06:29:59;;;;;;;5.13;1.20;;;13.80;99.90;;;;;;6157349;23;20486;-47
2022/10/26 06:32:25;;;;;;;2.00;1.17;;;13.90;99.90;;;;;;6157742;23;20149;-48
2022/10/26 06:34:58;;;;;;;1.80;1.00;;;13.80;99.90;;;;;;6130837;23;20158;-48
2022/10/26 06:37:25;;;;;;;3.17;1.20;;;13.80;99.90;;;;;;6157319;23;20514;-48
2022/10/26 06:39:51;;;;;;;4.03;0.80;;;13.80;99.90;;;;;;6156889;23;20204;-47
2022/10/26 06:42:17;;;;;;;6.30;1.30;;;13.80;99.90;;;;;;6156964;23;20162;-48
2022/10/26 06:44:42;;;;;;;3.17;1.23;;;13.80;99.90;;;;;;6156826;23;20634;-48
2022/10/26 06:47:30;;;;;;;2.27;1.13;;;13.70;99.90;;;;;;6156710;23;20174;-49
2022/10/26 06:49:59;;;;;;;3.13;1.10;;;13.70;99.90;;;;;;6157356;23;20142;-49
2022/10/26 06:52:40;;;;;;;2.90;1.10;;;13.80;99.90;;;;;;6157153;23;20157;-46
2022/10/26 06:55:16;;;;;;;9.80;1.47;;;13.80;99.90;;;;;;6157088;23;20197;-46
2022/10/26 06:57:43;;;;;;;2.57;1.17;;;13.70;99.90;;;;;;6156996;23;20177;-48
2022/10/26 07:00:23;;;;;;;5.90;1.20;;;13.70;99.90;;;;;;6157039;23;20191;-48
2022/10/26 07:02:49;;;;;;;5.83;3.80;;;13.70;99.90;;;;;;6157254;23;20161;-48
2022/10/26 07:05:15;;;;;;;10.17;5.47;;;13.70;99.90;;;;;;6157130;23;20185;-49
2022/10/26 07:07:45;;;;;;;5.90;3.97;;;13.80;99.90;;;;;;6156574;23;20223;-48
2022/10/26 07:10:13;;;;;;;4.13;2.40;;;13.80;99.90;;;;;;6156928;23;20158;-49
2022/10/26 07:12:39;;;;;;;5.17;2.10;;;13.80;99.90;;;;;;6156690;23;20169;-49
2022/10/26 07:15:05;;;;;;;4.37;2.47;;;13.80;99.90;;;;;;6156802;23;20228;-48
2022/10/26 07:17:31;;;;;;;7.07;2.97;;;13.80;99.90;;;;;;6157008;23;20200;-49
2022/10/26 07:19:57;;;;;;;9.67;4.83;;;13.80;99.90;;;;;;6130666;23;20166;-47
2022/10/26 07:22:24;;;;;;;7.77;3.00;;;13.80;99.90;;;;;;6157035;23;20158;-49
2022/10/26 07:24:50;;;;;;;3.83;1.50;;;13.90;99.90;;;;;;6130572;23;20165;-49
2022/10/26 07:27:18;;;;;;;3.07;1.50;;;13.90;99.90;;;;;;6156431;23;20256;-49
2022/10/26 07:29:44;;;;;;;4.60;2.50;;;14.00;99.90;;;;;;6157461;23;20168;-47
2022/10/26 07:32:09;;;;;;;6.20;2.63;;;14.10;99.90;;;;;;6156666;23;20240;-49
2022/10/26 07:34:35;;;;;;;9.50;4.83;;;14.20;99.90;;;;;;6156656;23;20157;-49
2022/10/26 07:37:00;;;;;;;6.87;3.73;;;14.30;99.90;;;;;;6156306;23;20619;-49
2022/10/26 07:39:26;;;;;;;11.67;3.30;;;14.30;99.90;;;;;;6130337;23;20170;-50
2022/10/26 07:41:52;;;;;;;5.30;2.23;;;14.30;99.90;;;;;;6156260;23;20177;-49
2022/10/26 07:44:18;;;;;;;3.13;2.10;;;14.30;99.90;;;;;;6156677;23;20153;-49
2022/10/26 07:46:43;;;;;;;5.20;1.90;;;14.40;99.90;;;;;;6156208;23;20156;-48
2022/10/26 07:49:09;;;;;;;2.57;1.73;;;14.40;99.90;;;;;;6156386;23;20154;-48
2022/10/26 07:51:35;;;;;;;4.47;1.93;;;14.40;99.90;;;;;;6156641;23;20169;-48
2022/10/26 07:54:01;;;;;;;3.77;1.50;;;14.40;99.90;;;;;;6156369;23;20595;-47
2022/10/26 07:56:27;;;;;;;3.87;1.20;;;14.50;99.90;;;;;;6156255;23;20161;-48
2022/10/26 07:58:53;;;;;;;3.60;1.30;;;14.50;99.90;;;;;;6156082;23;20310;-48
2022/10/26 08:01:19;;;;;;;2.73;1.17;;;14.50;99.90;;;;;;6129962;23;20190;-50
2022/10/26 08:03:44;;;;;;;4.43;1.60;;;14.60;99.90;;;;;;6156605;23;20161;-49
2022/10/26 08:06:10;;;;;;;6.17;1.70;;;14.70;99.90;;;;;;6156224;23;20153;-49
2022/10/26 08:08:36;;;;;;;4.30;1.50;;;14.70;99.90;;;;;;6156151;23;20197;-50
2022/10/26 08:11:03;;;;;;;4.87;1.40;;;14.70;99.90;;;;;;6156216;23;20160;-48
2022/10/26 08:13:29;;;;;;;3.40;1.70;;;14.70;99.90;;;;;;6156913;23;20232;-49
2022/10/26 08:15:59;;;;;;;6.13;1.40;;;14.70;99.90;;;;;;6156288;23;20208;-48
2022/10/26 08:18:25;;;;;;;4.17;1.80;;;14.70;99.90;;;;;;6156168;23;20200;-50
2022/10/26 08:20:51;;;;;;;6.30;1.90;;;14.80;99.90;;;;;;6156096;23;20628;-49
2022/10/26 08:23:17;;;;;;;5.23;1.40;;;14.70;99.90;;;;;;6156214;23;20153;-48
2022/10/26 08:25:42;;;;;;;3.67;1.67;;;14.80;99.90;;;;;;6156232;23;20237;-50
2022/10/26 08:28:08;;;;;;;4.03;1.60;;;14.80;99.90;;;;;;6156480;23;20173;-50
2022/10/26 08:30:34;;;;;;;7.20;1.47;;;14.80;99.90;;;;;;6156543;23;20207;-51
2022/10/26 08:33:05;;;;;;;6.50;1.77;;;14.80;99.90;;;;;;6156131;23;20217;-49
2022/10/26 08:35:31;;;;;;;10.17;1.97;;;14.80;99.90;;;;;;6156421;23;20165;-48
2022/10/26 08:37:57;;;;;;;10.40;1.93;;;14.90;99.90;;;;;;6156682;23;20189;-48
2022/10/26 08:40:30;;;;;;;6.50;1.90;;;14.90;99.90;;;;;;6157423;23;20580;-48
2022/10/26 08:43:11;;;;;;;3.10;1.80;;;15.10;99.90;;;;;;6131870;23;20622;-48
2022/10/26 08:45:40;;;;;;;5.07;2.10;;;15.20;99.90;;;;;;6158392;23;20237;-48
2022/10/26 08:48:14;;;;;;;3.50;1.90;;;15.20;99.90;;;;;;6158689;23;20558;-49
2022/10/26 08:50:50;;;;;;;7.40;2.10;;;15.20;99.90;;;;;;6156728;23;20141;-49
2022/10/26 08:53:19;;;;;;;4.73;2.07;;;15.30;99.90;;;;;;6130448;23;20540;-50
2022/10/26 08:56:16;;;;;;;7.93;2.43;;;15.40;99.90;;;;;;6130794;23;20236;-48
2022/10/26 08:58:50;;;;;;;5.10;3.07;;;15.50;99.90;;;;;;6132253;23;20311;-50
2022/10/26 09:01:16;;;;;;;5.93;3.00;;;15.60;99.90;;;;;;6156351;23;20269;-49
2022/10/26 09:03:42;;;;;;;6.23;3.40;;;15.70;99.90;;;;;;6155933;23;20163;-47
2022/10/26 09:06:26;;;;;;;11.90;3.40;;;15.80;99.90;;;;;;6155838;23;20217;-49
2022/10/26 09:09:31;;;;;;;7.90;3.30;;;15.90;99.90;;;;;;6155714;23;20181;-48
2022/10/26 09:12:23;;;;;;;3.30;1.90;;;16.00;99.90;;;;;;6130081;23;20169;-47
2022/10/26 09:14:55;;;;;;;2.90;1.90;;;16.20;99.90;;;;;;6156179;23;20591;-49
2022/10/26 09:17:56;;;;;;;5.87;2.10;;;16.20;99.90;;;;;;6156357;23;20636;-49
2022/10/26 09:20:40;;;;;;;5.47;1.93;;;16.30;99.90;;;;;;6110620;23;20243;-48
2022/10/26 09:23:14;;;;;;;3.63;1.87;;;16.50;99.90;;;;;;6155725;23;20150;-48
2022/10/26 09:25:40;;;;;;;7.27;2.33;;;16.60;99.90;;;;;;6155979;23;20584;-48
2022/10/26 09:28:16;;;;;;;3.27;1.63;;;16.70;99.90;;;;;;6155732;23;20209;-49
2022/10/26 09:30:44;;;;;;;4.43;1.70;;;16.80;99.90;;;;;;6130549;23;20163;-51
2022/10/26 09:33:21;;;;;;;5.07;1.53;;;17.00;99.90;;;;;;6157861;23;20216;-48
2022/10/26 09:36:05;;;;;;;6.80;1.83;;;17.10;99.90;;;;;;6157704;23;20204;-49
2022/10/26 09:38:43;;;;;;;5.13;2.00;;;17.20;99.90;;;;;;6157447;23;20307;-49
2022/10/26 09:41:35;;;;;;;3.57;1.90;;;17.30;99.90;;;;;;6157612;23;20209;-48
2022/10/26 09:44:37;;;;;;;4.77;1.70;;;17.40;99.90;;;;;;6158344;23;20149;-49
2022/10/26 09:47:21;;;;;;;4.27;2.30;;;17.60;99.90;;;;;;6157710;23;20145;-50
2022/10/26 09:49:53;;;;;;;8.03;1.83;;;17.70;99.90;;;;;;6157730;23;20515;-49
2022/10/26 09:52:19;;;;;;;4.23;1.70;;;17.80;99.90;;;;;;6157810;23;20225;-49
2022/10/26 09:54:45;;;;;;;6.87;1.83;;;17.90;99.90;;;;;;6157670;23;20154;-50
2022/10/26 09:57:15;;;;;;;4.50;1.90;;;18.00;99.90;;;;;;6157448;23;20187;-49
2022/10/26 09:59:41;;;;;;;5.03;1.40;;;18.10;99.90;;;;;;6157405;23;20474;-51
2022/10/26 10:02:58;;;;;;;5.43;1.83;;;18.20;99.90;;;;;;6157337;23;20186;-49
2022/10/26 10:05:25;;;;;;;6.17;1.97;;;18.20;99.90;;;;;;6092371;23;20224;-50
2022/10/26 10:07:51;;;;;;;5.90;1.63;;;18.30;99.90;;;;;;6131008;23;20189;-50
2022/10/26 10:10:21;;;;;;;4.50;1.50;;;18.40;99.90;;;;;;6157813;23;20172;-48
2022/10/26 10:12:51;;;;;;;6.00;1.73;;;18.50;99.90;;;;;;6157377;23;20157;-50
2022/10/26 10:15:24;;;;;;;4.73;1.77;;;18.50;99.90;;;;;;6157600;23;20157;-49
2022/10/26 10:17:52;;;;;;;8.70;1.50;;;18.60;99.90;;;;;;6157536;23;20214;-49
2022/10/26 10:20:31;;;;;;;4.00;1.53;;;18.60;99.90;;;;;;6157174;23;20650;-49
2022/10/26 10:22:59;;;;;;;6.57;1.60;;;18.70;99.90;;;;;;6157833;23;20150;-50
2022/10/26 10:25:36;;;;;;;2.90;1.23;;;18.80;99.90;;;;;;6157308;23;20150;-50
2022/10/26 10:28:24;;;;;;;4.03;1.20;;;18.90;99.90;;;;;;6157947;23;20176;-52
2022/10/26 10:30:58;;;;;;;4.03;1.27;;;19.00;99.90;;;;;;6157741;23;20158;-49
2022/10/26 11:24:19;;;;;;;4.47;0.90;;;20.40;99.90;;;;;;6186511;23;20217;-87
2022/10/26 11:26:48;;;;;;;3.73;1.23;;;20.40;99.90;;;;;;6160267;23;20157;-85
2022/10/26 11:29:31;;;;;;;2.47;1.07;;;20.50;99.90;;;;;;6160521;23;20207;-88
2022/10/26 11:32:18;;;;;;;7.17;1.43;;;20.50;99.90;;;;;;6160396;23;20465;-84
2022/10/26 11:35:13;;;;;;;4.83;1.20;;;20.60;99.90;;;;;;6160374;23;20181;-88
2022/10/26 11:38:07;;;;;;;3.50;1.30;;;20.50;99.90;;;;;;6160527;23;20487;-86
2022/10/26 11:40:46;;;;;;;2.83;1.30;;;20.60;99.90;;;;;;6109605;23;20188;-89
2022/10/26 11:43:38;;;;;;;2.63;1.07;;;20.60;99.90;;;;;;6161263;23;20180;-86
2022/10/26 11:46:04;;;;;;;2.07;1.03;;;20.70;99.90;;;;;;6160363;23;20176;-86
2022/10/26 11:48:34;;;;;;;3.33;1.23;;;20.70;99.90;;;;;;6160407;23;20161;-85
2022/10/26 11:51:01;;;;;;;2.37;1.33;;;20.80;99.90;;;;;;6186813;23;20224;-86
2022/10/26 11:53:38;;;;;;;4.10;1.30;;;20.80;99.90;;;;;;6161197;23;20187;-88
2022/10/26 11:56:12;;;;;;;12.60;1.27;;;20.80;99.90;;;;;;6164705;23;20145;-84
2022/10/26 11:58:38;;;;;;;4.60;1.27;;;20.90;99.90;;;;;;6160130;23;20149;-87
2022/10/26 12:01:08;;;;;;;3.40;1.00;;;20.90;99.90;;;;;;6160408;23;20185;-87
2022/10/26 12:03:39;;;;;;;5.27;1.10;;;21.00;99.90;;;;;;6160141;23;20230;-87
2022/10/26 12:06:05;;;;;;;2.17;1.37;;;21.00;99.90;;;;;;6160140;23;20236;-87
2022/10/26 12:08:41;;;;;;;2.63;1.57;;;21.00;99.90;;;;;;6160311;23;20607;-86
2022/10/26 12:11:40;;;;;;;2.03;1.00;;;21.10;99.90;;;;;;6164545;23;20176;-88
2022/10/26 12:14:22;;;;;;;3.27;1.00;;;21.10;99.90;;;;;;6163624;23;20180;-88
2022/10/26 12:17:02;;;;;;;2.93;1.53;;;21.20;99.90;;;;;;6160873;23;20157;-87
2022/10/26 12:19:57;;;;;;;4.03;1.30;;;21.20;99.90;;;;;;6160482;23;20156;-88
2022/10/26 12:22:31;;;;;;;2.10;0.90;;;21.30;99.90;;;;;;6160583;23;20164;-86
2022/10/26 12:25:18;;;;;;;4.70;1.60;;;21.20;99.90;;;;;;6184074;23;20696;-87
2022/10/26 12:27:44;;;;;;;2.83;1.10;;;21.30;99.90;;;;;;6190167;23;20175;-86
2022/10/26 12:30:16;;;;;;;2.40;1.07;;;21.30;99.90;;;;;;6190443;23;20602;-88
2022/10/26 12:32:44;;;;;;;3.70;1.13;;;21.30;99.90;;;;;;6190125;23;20211;-85
2022/10/26 12:35:42;;;;;;;4.83;1.20;;;21.40;99.90;;;;;;6189871;23;20167;-88
2022/10/26 12:38:23;;;;;;;3.90;1.00;;;21.30;99.90;;;;;;6190221;23;20148;-87
2022/10/26 12:41:20;;;;;;;2.73;0.87;;;21.40;99.90;;;;;;6190064;23;20226;-87
2022/10/26 12:43:46;;;;;;;1.93;0.90;;;21.40;99.90;;;;;;6189935;23;20266;-87
2022/10/26 12:46:11;;;;;;;4.13;1.10;;;21.40;99.90;;;;;;6189841;23;20160;-88
2022/10/26 12:48:42;;;;;;;1.73;0.80;;;21.40;99.90;;;;;;6190412;23;20186;-87
2022/10/26 12:51:26;;;;;;;2.23;0.90;;;21.50;99.90;;;;;;6189759;23;20185;-87
2022/10/26 12:54:21;;;;;;;4.10;1.37;;;21.50;99.90;;;;;;6189553;23;20228;-88
2022/10/26 12:56:54;;;;;;;5.83;1.00;;;21.50;99.90;;;;;;6190072;23;20148;-86
2022/10/26 12:59:58;;;;;;;2.13;0.80;;;21.50;99.90;;;;;;6193744;23;20160;-87
2022/10/26 13:02:49;;;;;;;3.33;0.97;;;21.50;99.90;;;;;;6189875;23;20632;-85
2022/10/26 13:05:40;;;;;;;4.20;1.03;;;21.50;99.90;;;;;;6190219;23;20239;-88
2022/10/26 13:08:09;;;;;;;3.00;0.80;;;21.50;99.90;;;;;;6218947;23;20137;-87
2022/10/26 13:10:37;;;;;;;3.20;1.17;;;21.60;99.90;;;;;;6166901;23;20511;-87
2022/10/26 13:13:06;;;;;;;2.27;0.90;;;21.60;99.90;;;;;;6191621;23;20495;-88
2022/10/26 13:15:39;;;;;;;3.43;0.97;;;21.60;99.90;;;;;;6191569;23;20474;-86
2022/10/26 13:18:09;;;;;;;7.33;1.00;;;21.70;99.90;;;;;;6191555;23;20152;-87
2022/10/26 13:20:50;;;;;;;3.60;0.90;;;21.80;99.90;;;;;;6191242;23;20226;-87
2022/10/26 13:23:30;;;;;;;3.80;1.00;;;21.80;99.90;;;;;;6191901;23;20214;-86
2022/10/26 13:26:12;;;;;;;0.93;0.70;;;21.80;99.90;;;;;;6191283;23;20156;-88
2022/10/26 13:28:37;;;;;;;1.43;0.70;;;21.90;99.90;;;;;;6191734;23;20152;-88
2022/10/26 13:31:04;;;;;;;1.30;0.80;;;21.80;99.90;;;;;;6191189;23;20176;-87
2022/10/26 13:33:37;;;;;;;3.73;0.90;;;21.80;99.90;;;;;;6191146;23;20188;-86
2022/10/26 13:36:13;;;;;;;1.93;0.70;;;21.70;99.90;;;;;;6191496;23;20227;-87
2022/10/26 13:38:39;;;;;;;3.10;1.03;;;21.70;99.90;;;;;;6191016;23;20598;-86
2022/10/26 13:41:12;;;;;;;4.23;0.87;;;21.70;99.90;;;;;;6190381;23;20184;-87
2022/10/26 13:43:38;;;;;;;2.67;0.90;;;21.60;99.90;;;;;;6191019;23;20180;-87
2022/10/26 13:46:04;;;;;;;1.87;0.70;;;21.60;99.90;;;;;;6191206;23;20157;-85
2022/10/26 13:48:39;;;;;;;2.53;1.07;;;21.60;99.90;;;;;;6191312;23;20164;-87
2022/10/26 13:51:23;;;;;;;1.57;0.87;;;21.60;99.90;;;;;;6191220;23;20491;-87
2022/10/26 13:54:11;;;;;;;1.50;0.70;;;21.60;99.90;;;;;;6191054;23;20182;-86
2022/10/26 13:56:44;;;;;;;6.67;1.10;;;21.70;99.90;;;;;;6191097;23;20179;-88
2022/10/26 13:59:12;;;;;;;2.87;0.70;;;21.70;99.90;;;;;;6191127;23;20148;-88
2022/10/26 14:01:38;;;;;;;2.33;0.77;;;21.70;99.90;;;;;;6191179;23;20180;-87
2022/10/26 14:04:24;;;;;;;2.20;0.90;;;21.60;99.90;;;;;;6191093;23;20221;-87
2022/10/26 14:06:51;;;;;;;1.03;0.80;;;21.50;99.90;;;;;;6191125;23;20152;-86
2022/10/26 14:09:18;;;;;;;4.50;1.10;;;21.50;99.90;;;;;;6191184;23;20210;-86
2022/10/26 14:11:54;;;;;;;4.23;0.80;;;21.50;99.90;;;;;;6166120;23;20184;-87
2022/10/26 14:14:24;;;;;;;8.03;1.03;;;21.50;99.90;;;;;;6190845;23;20218;-85
2022/10/26 14:16:52;;;;;;;2.40;0.90;;;21.50;99.90;;;;;;6191119;23;20163;-88
2022/10/26 14:19:27;;;;;;;4.80;0.80;;;21.50;99.90;;;;;;6190904;23;20168;-87
2022/10/26 14:21:53;;;;;;;2.73;0.70;;;21.50;99.90;;;;;;6191071;23;20207;-88
2022/10/26 14:24:21;;;;;;;2.70;0.60;;;21.50;99.90;;;;;;6190558;23;20273;-87
2022/10/26 14:26:47;;;;;;;1.00;0.70;;;21.50;99.90;;;;;;6191164;23;20164;-88